sensor_id;sensor_type;location;lat;lon;timestamp;temperature;humidity
32865;DHT22;19219;44.500;11.188;2023-04-16T00:02:04;11.90;99.90
32865;DHT22;19219;44.500;11.188;2023-04-16T00:04:30;12.00;99.90
32865;DHT22;19219;44.500;11.188;2023-04-16T00:06:56;12.00;99.90
32865;DHT22;19219;44.500;11.188;2023-04-16T00:09:21;11.90;99.90
32865;DHT22;19219;44.500;11.188;2023-04-16T00:11:47;12.00;99.90
32865;DHT22;19219;44.500;11.188;2023-04-16T00:14:13;11.90;99.90
32865;DHT22;19219;44.500;11.188;2023-04-16T00:16:38;11.90;99.90
32865;DHT22;19219;44.500;11.188;2023-04-16T00:19:04;11.80;99.90
32865;DHT22;19219;44.500;11.188;2023-04-16T00:21:30;11.90;99.90
32865;DHT22;19219;44.500;11.188;2023-04-16T00:23:57;12.00;99.90
32865;DHT22;19219;44.500;11.188;2023-04-16T00:26:23;12.10;99.90
32865;DHT22;19219;44.500;11.188;2023-04-16T00:28:49;12.10;99.90
32865;DHT22;19219;44.500;11.188;2023-04-16T00:31:14;12.00;99.90
32865;DHT22;19219;44.500;11.188;2023-04-16T00:33:40;12.00;99.90
32865;DHT22;19219;44.500;11.188;2023-04-16T00:36:06;12.00;99.90
32865;DHT22;19219;44.500;11.188;2023-04-16T00:38:32;12.10;99.90
32865;DHT22;19219;44.500;11.188;2023-04-16T00:40:57;12.00;99.90
32865;DHT22;19219;44.500;11.188;2023-04-16T00:43:24;12.10;99.90
32865;DHT22;19219;44.500;11.188;2023-04-16T00:45:55;12.10;99.90
32865;DHT22;19219;44.500;11.188;2023-04-16T00:48:21;12.10;99.90
32865;DHT22;19219;44.500;11.188;2023-04-16T00:50:47;12.00;99.90
32865;DHT22;19219;44.500;11.188;2023-04-16T00:53:13;11.90;99.90
32865;DHT22;19219;44.500;11.188;2023-04-16T00:55:40;12.00;99.90
32865;DHT22;19219;44.500;11.188;2023-04-16T00:58:05;12.00;99.90
32865;DHT22;19219;44.500;11.188;2023-04-16T01:00:31;11.90;99.90
32865;DHT22;19219;44.500;11.188;2023-04-16T01:02:58;11.90;99.90
32865;DHT22;19219;44.500;11.188;2023-04-16T01:05:25;11.90;99.90
32865;DHT22;19219;44.500;11.188;2023-04-16T01:07:50;11.90;99.90
32865;DHT22;19219;44.500;11.188;2023-04-16T01:10:16;11.90;99.90
32865;DHT22;19219;44.500;11.188;2023-04-16T01:12:42;11.90;99.90
32865;DHT22;19219;44.500;11.188;2023-04-16T01:15:08;11.90;99.90
32865;DHT22;19219;44.500;11.188;2023-04-16T01:17:33;12.00;99.90
32865;DHT22;19219;44.500;11.188;2023-04-16T01:19:59;12.00;99.90
32865;DHT22;19219;44.500;11.188;2023-04-16T01:22:26;11.90;99.90
32865;DHT22;19219;44.500;11.188;2023-04-16T01:24:52;11.90;99.90
32865;DHT22;19219;44.500;11.188;2023-04-16T01:27:18;11.90;99.90
32865;DHT22;19219;44.500;11.188;2023-04-16T01:29:44;11.90;99.90
32865;DHT22;19219;44.500;11.188;2023-04-16T01:32:09;11.90;99.90
32865;DHT22;19219;44.500;11.188;2023-04-16T01:34:35;12.00;99.90
32865;DHT22;19219;44.500;11.188;2023-04-16T01:37:02;12.00;99.90
32865;DHT22;19219;44.500;11.188;2023-04-16T01:39:28;12.00;99.90
32865;DHT22;19219;44.500;11.188;2023-04-16T01:41:53;12.00;99.90
32865;DHT22;19219;44.500;11.188;2023-04-16T01:44:19;11.90;99.90
32865;DHT22;19219;44.500;11.188;2023-04-16T01:46:46;11.90;99.90
32865;DHT22;19219;44.500;11.188;2023-04-16T01:49:12;11.80;99.90
32865;DHT22;19219;44.500;11.188;2023-04-16T01:51:38;11.80;99.90
32865;DHT22;19219;44.500;11.188;2023-04-16T01:54:03;11.70;99.90
32865;DHT22;19219;44.500;11.188;2023-04-16T01:56:29;11.80;99.90
32865;DHT22;19219;44.500;11.188;2023-04-16T01:58:55;11.90;99.90
32865;DHT22;19219;44.500;11.188;2023-04-16T02:01:20;11.80;99.90
32865;DHT22;19219;44.500;11.188;2023-04-16T02:03:46;11.90;99.90
32865;DHT22;19219;44.500;11.188;2023-04-16T02:06:12;11.90;99.90
32865;DHT22;19219;44.500;11.188;2023-04-16T02:08:39;11.80;99.90
32865;DHT22;19219;44.500;11.188;2023-04-16T02:11:05;11.80;99.90
32865;DHT22;19219;44.500;11.188;2023-04-16T02:13:31;11.80;99.90
32865;DHT22;19219;44.500;11.188;2023-04-16T02:15:57;11.80;99.90
32865;DHT22;19219;44.500;11.188;2023-04-16T02:18:23;11.90;99.90
32865;DHT22;19219;44.500;11.188;2023-04-16T02:20:48;11.90;99.90
32865;DHT22;19219;44.500;11.188;2023-04-16T02:23:14;11.90;99.90
32865;DHT22;19219;44.500;11.188;2023-04-16T02:25:41;11.90;99.90
32865;DHT22;19219;44.500;11.188;2023-04-16T02:28:08;11.90;99.90
32865;DHT22;19219;44.500;11.188;2023-04-16T02:30:38;11.80;99.90
32865;DHT22;19219;44.500;11.188;2023-04-16T02:33:04;11.70;99.90
32865;DHT22;19219;44.500;11.188;2023-04-16T02:35:32;11.60;99.90
32865;DHT22;19219;44.500;11.188;2023-04-16T02:37:57;11.40;99.90
32865;DHT22;19219;44.500;11.188;2023-04-16T02:40:24;11.40;99.90
32865;DHT22;19219;44.500;11.188;2023-04-16T02:42:50;11.40;99.90
32865;DHT22;19219;44.500;11.188;2023-04-16T02:45:16;11.30;99.90
32865;DHT22;19219;44.500;11.188;2023-04-16T02:47:42;11.20;99.90
32865;DHT22;19219;44.500;11.188;2023-04-16T02:50:08;11.20;99.90
32865;DHT22;19219;44.500;11.188;2023-04-16T02:52:33;11.30;99.90
32865;DHT22;19219;44.500;11.188;2023-04-16T02:54:59;11.30;99.90
32865;DHT22;19219;44.500;11.188;2023-04-16T02:57:25;11.30;99.90
32865;DHT22;19219;44.500;11.188;2023-04-16T02:59:51;11.30;99.90
32865;DHT22;19219;44.500;11.188;2023-04-16T03:02:16;11.30;99.90
32865;DHT22;19219;44.500;11.188;2023-04-16T03:04:42;11.20;99.90
32865;DHT22;19219;44.500;11.188;2023-04-16T03:07:08;11.20;99.90
32865;DHT22;19219;44.500;11.188;2023-04-16T03:09:34;11.30;99.90
32865;DHT22;19219;44.500;11.188;2023-04-16T03:12:00;11.20;99.90
32865;DHT22;19219;44.500;11.188;2023-04-16T03:14:27;11.30;99.90
32865;DHT22;19219;44.500;11.188;2023-04-16T03:16:52;11.30;99.90
32865;DHT22;19219;44.500;11.188;2023-04-16T03:19:18;11.30;99.90
32865;DHT22;19219;44.500;11.188;2023-04-16T03:21:44;11.10;99.90
32865;DHT22;19219;44.500;11.188;2023-04-16T03:24:09;11.20;99.90
32865;DHT22;19219;44.500;11.188;2023-04-16T03:26:36;11.20;99.90
32865;DHT22;19219;44.500;11.188;2023-04-16T03:29:02;11.20;99.90
32865;DHT22;19219;44.500;11.188;2023-04-16T03:31:27;11.30;99.90
32865;DHT22;19219;44.500;11.188;2023-04-16T03:33:53;11.30;99.90
32865;DHT22;19219;44.500;11.188;2023-04-16T03:36:19;11.40;99.90
32865;DHT22;19219;44.500;11.188;2023-04-16T03:38:44;11.40;99.90
32865;DHT22;19219;44.500;11.188;2023-04-16T03:41:10;11.40;99.90
32865;DHT22;19219;44.500;11.188;2023-04-16T03:43:36;11.30;99.90
32865;DHT22;19219;44.500;11.188;2023-04-16T03:46:01;11.30;99.90
32865;DHT22;19219;44.500;11.188;2023-04-16T03:48:27;11.20;99.90
32865;DHT22;19219;44.500;11.188;2023-04-16T03:50:53;11.30;99.90
32865;DHT22;19219;44.500;11.188;2023-04-16T03:53:18;11.20;99.90
32865;DHT22;19219;44.500;11.188;2023-04-16T03:55:44;11.30;99.90
32865;DHT22;19219;44.500;11.188;2023-04-16T03:58:10;11.30;99.90
32865;DHT22;19219;44.500;11.188;2023-04-16T04:00:35;11.30;99.90
32865;DHT22;19219;44.500;11.188;2023-04-16T04:03:01;11.30;99.90
32865;DHT22;19219;44.500;11.188;2023-04-16T04:05:27;11.20;99.90
32865;DHT22;19219;44.500;11.188;2023-04-16T04:07:52;11.30;99.90
32865;DHT22;19219;44.500;11.188;2023-04-16T04:10:18;11.20;99.90
32865;DHT22;19219;44.500;11.188;2023-04-16T04:12:44;11.20;99.90
32865;DHT22;19219;44.500;11.188;2023-04-16T04:15:10;11.30;99.90
32865;DHT22;19219;44.500;11.188;2023-04-16T04:17:36;11.20;99.90
32865;DHT22;19219;44.500;11.188;2023-04-16T04:20:02;11.20;99.90
32865;DHT22;19219;44.500;11.188;2023-04-16T04:22:27;11.30;99.90
32865;DHT22;19219;44.500;11.188;2023-04-16T04:24:53;11.30;99.90
32865;DHT22;19219;44.500;11.188;2023-04-16T04:27:19;11.30;99.90
32865;DHT22;19219;44.500;11.188;2023-04-16T04:29:44;11.20;99.90
32865;DHT22;19219;44.500;11.188;2023-04-16T04:32:10;11.30;99.90
32865;DHT22;19219;44.500;11.188;2023-04-16T04:34:36;11.30;99.90
32865;DHT22;19219;44.500;11.188;2023-04-16T04:37:01;11.30;99.90
32865;DHT22;19219;44.500;11.188;2023-04-16T04:39:27;11.30;99.90
32865;DHT22;19219;44.500;11.188;2023-04-16T04:41:53;11.30;99.90
32865;DHT22;19219;44.500;11.188;2023-04-16T04:44:18;11.30;99.90
32865;DHT22;19219;44.500;11.188;2023-04-16T04:46:44;11.30;99.90
32865;DHT22;19219;44.500;11.188;2023-04-16T04:49:10;11.40;99.90
32865;DHT22;19219;44.500;11.188;2023-04-16T04:51:35;11.30;99.90
32865;DHT22;19219;44.500;11.188;2023-04-16T04:54:01;11.20;99.90
32865;DHT22;19219;44.500;11.188;2023-04-16T04:56:27;11.20;99.90
32865;DHT22;19219;44.500;11.188;2023-04-16T04:58:53;11.30;99.90
32865;DHT22;19219;44.500;11.188;2023-04-16T05:01:19;11.30;99.90
32865;DHT22;19219;44.500;11.188;2023-04-16T05:03:45;11.40;99.90
32865;DHT22;19219;44.500;11.188;2023-04-16T05:06:10;11.50;99.90
32865;DHT22;19219;44.500;11.188;2023-04-16T05:08:36;11.50;99.90
32865;DHT22;19219;44.500;11.188;2023-04-16T05:11:02;11.60;99.90
32865;DHT22;19219;44.500;11.188;2023-04-16T05:13:27;11.60;99.90
32865;DHT22;19219;44.500;11.188;2023-04-16T05:15:53;11.60;99.90
32865;DHT22;19219;44.500;11.188;2023-04-16T05:18:19;11.70;99.90
32865;DHT22;19219;44.500;11.188;2023-04-16T05:20:45;11.80;99.90
32865;DHT22;19219;44.500;11.188;2023-04-16T05:23:10;11.90;99.90
32865;DHT22;19219;44.500;11.188;2023-04-16T05:25:36;12.00;99.90
32865;DHT22;19219;44.500;11.188;2023-04-16T05:28:02;11.90;99.90
32865;DHT22;19219;44.500;11.188;2023-04-16T05:30:27;11.90;99.90
32865;DHT22;19219;44.500;11.188;2023-04-16T05:32:53;12.00;99.90
32865;DHT22;19219;44.500;11.188;2023-04-16T05:35:19;12.10;99.90
32865;DHT22;19219;44.500;11.188;2023-04-16T05:37:44;12.20;99.90
32865;DHT22;19219;44.500;11.188;2023-04-16T05:40:12;12.30;99.90
32865;DHT22;19219;44.500;11.188;2023-04-16T05:42:37;12.50;99.90
32865;DHT22;19219;44.500;11.188;2023-04-16T05:45:04;12.50;99.90
32865;DHT22;19219;44.500;11.188;2023-04-16T05:47:29;12.60;99.90
32865;DHT22;19219;44.500;11.188;2023-04-16T05:49:55;12.60;99.90
32865;DHT22;19219;44.500;11.188;2023-04-16T05:52:21;12.70;99.90
32865;DHT22;19219;44.500;11.188;2023-04-16T05:54:46;12.70;99.90
32865;DHT22;19219;44.500;11.188;2023-04-16T05:57:12;12.80;99.90
32865;DHT22;19219;44.500;11.188;2023-04-16T05:59:38;12.90;99.90
32865;DHT22;19219;44.500;11.188;2023-04-16T06:02:04;12.90;99.90
32865;DHT22;19219;44.500;11.188;2023-04-16T06:04:30;12.90;99.90
32865;DHT22;19219;44.500;11.188;2023-04-16T06:06:56;12.90;99.90
32865;DHT22;19219;44.500;11.188;2023-04-16T06:09:21;13.00;99.90
32865;DHT22;19219;44.500;11.188;2023-04-16T06:11:48;13.70;99.90
32865;DHT22;19219;44.500;11.188;2023-04-16T06:14:13;14.80;99.90
32865;DHT22;19219;44.500;11.188;2023-04-16T06:16:39;16.60;99.90
32865;DHT22;19219;44.500;11.188;2023-04-16T06:19:05;18.10;99.90
32865;DHT22;19219;44.500;11.188;2023-04-16T06:21:30;19.30;99.90
32865;DHT22;19219;44.500;11.188;2023-04-16T06:23:56;20.40;99.90
32865;DHT22;19219;44.500;11.188;2023-04-16T06:26:22;20.50;99.90
32865;DHT22;19219;44.500;11.188;2023-04-16T06:28:48;20.00;99.90
32865;DHT22;19219;44.500;11.188;2023-04-16T06:31:14;19.60;99.90
32865;DHT22;19219;44.500;11.188;2023-04-16T06:33:40;19.40;99.90
32865;DHT22;19219;44.500;11.188;2023-04-16T06:36:06;19.40;99.90
32865;DHT22;19219;44.500;11.188;2023-04-16T06:38:31;19.30;99.90
32865;DHT22;19219;44.500;11.188;2023-04-16T06:40:57;18.30;99.90
32865;DHT22;19219;44.500;11.188;2023-04-16T06:43:24;17.50;99.90
32865;DHT22;19219;44.500;11.188;2023-04-16T06:45:49;17.40;99.90
32865;DHT22;19219;44.500;11.188;2023-04-16T06:48:15;17.50;99.90
32865;DHT22;19219;44.500;11.188;2023-04-16T06:50:41;17.80;99.90
32865;DHT22;19219;44.500;11.188;2023-04-16T06:53:07;18.50;99.90
32865;DHT22;19219;44.500;11.188;2023-04-16T06:55:32;19.50;99.90
32865;DHT22;19219;44.500;11.188;2023-04-16T06:57:58;21.20;99.90
32865;DHT22;19219;44.500;11.188;2023-04-16T07:00:23;22.70;99.90
32865;DHT22;19219;44.500;11.188;2023-04-16T07:02:49;23.20;99.90
32865;DHT22;19219;44.500;11.188;2023-04-16T07:05:15;21.90;99.90
32865;DHT22;19219;44.500;11.188;2023-04-16T07:07:41;22.00;99.90
32865;DHT22;19219;44.500;11.188;2023-04-16T07:10:07;21.50;99.90
32865;DHT22;19219;44.500;11.188;2023-04-16T07:12:32;22.30;99.90
32865;DHT22;19219;44.500;11.188;2023-04-16T07:14:58;23.30;98.20
32865;DHT22;19219;44.500;11.188;2023-04-16T07:17:24;23.00;96.50
32865;DHT22;19219;44.500;11.188;2023-04-16T07:19:50;22.60;97.10
32865;DHT22;19219;44.500;11.188;2023-04-16T07:22:16;24.20;96.00
32865;DHT22;19219;44.500;11.188;2023-04-16T07:24:42;23.70;94.30
32865;DHT22;19219;44.500;11.188;2023-04-16T07:27:07;23.10;95.60
32865;DHT22;19219;44.500;11.188;2023-04-16T07:29:33;24.00;94.70
32865;DHT22;19219;44.500;11.188;2023-04-16T07:31:59;24.70;93.60
32865;DHT22;19219;44.500;11.188;2023-04-16T07:34:25;25.20;91.40
32865;DHT22;19219;44.500;11.188;2023-04-16T07:36:50;24.50;91.40
32865;DHT22;19219;44.500;11.188;2023-04-16T07:39:16;24.50;91.30
32865;DHT22;19219;44.500;11.188;2023-04-16T07:41:42;25.10;90.70
32865;DHT22;19219;44.500;11.188;2023-04-16T07:44:08;25.00;88.60
32865;DHT22;19219;44.500;11.188;2023-04-16T07:46:34;25.50;88.60
32865;DHT22;19219;44.500;11.188;2023-04-16T07:48:59;26.00;85.30
32865;DHT22;19219;44.500;11.188;2023-04-16T07:51:25;25.90;84.60
32865;DHT22;19219;44.500;11.188;2023-04-16T07:53:51;25.90;84.00
32865;DHT22;19219;44.500;11.188;2023-04-16T07:56:17;26.10;82.40
32865;DHT22;19219;44.500;11.188;2023-04-16T07:58:43;26.70;79.20
32865;DHT22;19219;44.500;11.188;2023-04-16T08:01:08;27.70;78.00
32865;DHT22;19219;44.500;11.188;2023-04-16T08:03:34;27.80;74.20
32865;DHT22;19219;44.500;11.188;2023-04-16T08:06:06;28.70;71.80
32865;DHT22;19219;44.500;11.188;2023-04-16T08:08:31;29.50;67.80
32865;DHT22;19219;44.500;11.188;2023-04-16T08:10:57;29.70;64.90
32865;DHT22;19219;44.500;11.188;2023-04-16T08:13:23;29.60;63.60
32865;DHT22;19219;44.500;11.188;2023-04-16T08:15:49;28.80;61.90
32865;DHT22;19219;44.500;11.188;2023-04-16T08:18:15;29.10;62.40
32865;DHT22;19219;44.500;11.188;2023-04-16T08:20:41;29.80;60.60
32865;DHT22;19219;44.500;11.188;2023-04-16T08:23:07;30.20;59.00
32865;DHT22;19219;44.500;11.188;2023-04-16T08:25:32;30.10;57.50
32865;DHT22;19219;44.500;11.188;2023-04-16T08:27:58;30.20;54.50
32865;DHT22;19219;44.500;11.188;2023-04-16T08:30:24;29.50;55.20
32865;DHT22;19219;44.500;11.188;2023-04-16T08:32:50;30.20;54.60
32865;DHT22;19219;44.500;11.188;2023-04-16T08:35:16;30.30;53.80
32865;DHT22;19219;44.500;11.188;2023-04-16T08:37:41;30.60;52.80
32865;DHT22;19219;44.500;11.188;2023-04-16T08:40:07;30.70;52.10
32865;DHT22;19219;44.500;11.188;2023-04-16T08:42:41;29.60;53.00
32865;DHT22;19219;44.500;11.188;2023-04-16T08:45:15;28.80;52.20
32865;DHT22;19219;44.500;11.188;2023-04-16T08:47:45;29.00;52.00
32865;DHT22;19219;44.500;11.188;2023-04-16T08:50:14;29.40;51.90
32865;DHT22;19219;44.500;11.188;2023-04-16T08:52:58;29.30;50.60
32865;DHT22;19219;44.500;11.188;2023-04-16T08:55:35;29.40;49.20
32865;DHT22;19219;44.500;11.188;2023-04-16T08:58:08;29.60;48.50
32865;DHT22;19219;44.500;11.188;2023-04-16T09:00:38;29.40;47.20
32865;DHT22;19219;44.500;11.188;2023-04-16T09:03:05;29.50;47.40
32865;DHT22;19219;44.500;11.188;2023-04-16T09:05:32;29.70;47.60
32865;DHT22;19219;44.500;11.188;2023-04-16T09:07:58;29.80;47.50
32865;DHT22;19219;44.500;11.188;2023-04-16T09:10:27;29.50;45.90
32865;DHT22;19219;44.500;11.188;2023-04-16T09:12:55;28.70;46.60
32865;DHT22;19219;44.500;11.188;2023-04-16T09:15:22;27.70;48.00
32865;DHT22;19219;44.500;11.188;2023-04-16T09:17:48;27.00;48.00
32865;DHT22;19219;44.500;11.188;2023-04-16T09:20:14;26.80;49.10
32865;DHT22;19219;44.500;11.188;2023-04-16T09:22:40;26.60;50.30
32865;DHT22;19219;44.500;11.188;2023-04-16T09:25:06;25.40;49.40
32865;DHT22;19219;44.500;11.188;2023-04-16T09:27:32;24.80;51.20
32865;DHT22;19219;44.500;11.188;2023-04-16T09:29:58;23.40;51.40
32865;DHT22;19219;44.500;11.188;2023-04-16T09:32:27;23.10;52.60
32865;DHT22;19219;44.500;11.188;2023-04-16T09:35:00;22.80;51.80
32865;DHT22;19219;44.500;11.188;2023-04-16T09:37:30;22.60;52.90
32865;DHT22;19219;44.500;11.188;2023-04-16T09:40:02;22.50;53.90
32865;DHT22;19219;44.500;11.188;2023-04-16T09:42:30;22.00;55.20
32865;DHT22;19219;44.500;11.188;2023-04-16T09:44:57;21.60;56.20
32865;DHT22;19219;44.500;11.188;2023-04-16T09:47:25;21.20;56.50
32865;DHT22;19219;44.500;11.188;2023-04-16T09:50:02;20.80;56.80
32865;DHT22;19219;44.500;11.188;2023-04-16T09:52:28;21.00;58.80
32865;DHT22;19219;44.500;11.188;2023-04-16T09:54:53;21.20;59.80
32865;DHT22;19219;44.500;11.188;2023-04-16T09:57:21;21.20;59.10
32865;DHT22;19219;44.500;11.188;2023-04-16T09:59:49;21.40;59.00
32865;DHT22;19219;44.500;11.188;2023-04-16T10:02:17;21.50;56.90
32865;DHT22;19219;44.500;11.188;2023-04-16T10:04:51;21.80;57.80
32865;DHT22;19219;44.500;11.188;2023-04-16T10:07:17;22.00;58.50
32865;DHT22;19219;44.500;11.188;2023-04-16T10:09:43;22.00;59.00
32865;DHT22;19219;44.500;11.188;2023-04-16T10:12:09;21.90;60.20
32865;DHT22;19219;44.500;11.188;2023-04-16T10:14:37;21.30;59.80
32865;DHT22;19219;44.500;11.188;2023-04-16T10:17:03;20.90;57.90
32865;DHT22;19219;44.500;11.188;2023-04-16T10:19:31;20.90;58.70
32865;DHT22;19219;44.500;11.188;2023-04-16T10:21:57;20.70;57.00
32865;DHT22;19219;44.500;11.188;2023-04-16T10:24:24;20.60;59.40
32865;DHT22;19219;44.500;11.188;2023-04-16T10:26:51;21.00;60.70
32865;DHT22;19219;44.500;11.188;2023-04-16T10:29:20;21.20;58.50
32865;DHT22;19219;44.500;11.188;2023-04-16T10:31:47;20.70;57.40
32865;DHT22;19219;44.500;11.188;2023-04-16T10:34:13;20.50;57.10
32865;DHT22;19219;44.500;11.188;2023-04-16T10:36:40;20.70;57.80
32865;DHT22;19219;44.500;11.188;2023-04-16T10:39:11;20.90;56.80
32865;DHT22;19219;44.500;11.188;2023-04-16T10:41:37;21.30;57.70
32865;DHT22;19219;44.500;11.188;2023-04-16T10:44:07;21.50;58.40
32865;DHT22;19219;44.500;11.188;2023-04-16T10:46:41;22.00;57.60
32865;DHT22;19219;44.500;11.188;2023-04-16T10:51:38;21.60;56.10
32865;DHT22;19219;44.500;11.188;2023-04-16T10:56:44;21.30;57.20
32865;DHT22;19219;44.500;11.188;2023-04-16T10:59:11;21.10;57.70
32865;DHT22;19219;44.500;11.188;2023-04-16T11:01:41;20.90;58.30
32865;DHT22;19219;44.500;11.188;2023-04-16T11:07:20;20.80;57.80
32865;DHT22;19219;44.500;11.188;2023-04-16T11:09:58;20.70;55.60
32865;DHT22;19219;44.500;11.188;2023-04-16T11:12:41;20.90;56.20
32865;DHT22;19219;44.500;11.188;2023-04-16T11:15:11;21.10;57.00
32865;DHT22;19219;44.500;11.188;2023-04-16T11:17:55;21.00;58.10
32865;DHT22;19219;44.500;11.188;2023-04-16T11:20:25;20.80;56.40
32865;DHT22;19219;44.500;11.188;2023-04-16T11:22:56;20.90;58.20
32865;DHT22;19219;44.500;11.188;2023-04-16T11:25:24;21.00;58.10
32865;DHT22;19219;44.500;11.188;2023-04-16T11:27:50;21.10;58.40
32865;DHT22;19219;44.500;11.188;2023-04-16T11:30:17;20.40;57.60
32865;DHT22;19219;44.500;11.188;2023-04-16T11:32:44;20.30;59.40
32865;DHT22;19219;44.500;11.188;2023-04-16T11:35:14;20.10;58.90
32865;DHT22;19219;44.500;11.188;2023-04-16T11:37:41;20.10;59.30
32865;DHT22;19219;44.500;11.188;2023-04-16T11:40:07;20.10;58.70
32865;DHT22;19219;44.500;11.188;2023-04-16T11:42:37;20.20;58.80
32865;DHT22;19219;44.500;11.188;2023-04-16T11:45:06;20.50;59.40
32865;DHT22;19219;44.500;11.188;2023-04-16T11:47:44;20.40;58.50
32865;DHT22;19219;44.500;11.188;2023-04-16T11:50:21;20.40;58.70
32865;DHT22;19219;44.500;11.188;2023-04-16T11:52:48;20.20;59.50
32865;DHT22;19219;44.500;11.188;2023-04-16T11:55:15;20.20;59.30
32865;DHT22;19219;44.500;11.188;2023-04-16T11:57:41;20.30;60.70
32865;DHT22;19219;44.500;11.188;2023-04-16T12:00:07;20.40;58.80
32865;DHT22;19219;44.500;11.188;2023-04-16T12:02:45;20.60;58.80
32865;DHT22;19219;44.500;11.188;2023-04-16T12:05:30;20.30;59.70
32865;DHT22;19219;44.500;11.188;2023-04-16T12:07:57;20.10;59.20
32865;DHT22;19219;44.500;11.188;2023-04-16T12:10:23;19.70;61.10
32865;DHT22;19219;44.500;11.188;2023-04-16T12:12:49;19.40;59.30
32865;DHT22;19219;44.500;11.188;2023-04-16T12:15:14;19.40;59.50
32865;DHT22;19219;44.500;11.188;2023-04-16T12:17:40;19.50;59.90
32865;DHT22;19219;44.500;11.188;2023-04-16T12:20:13;19.70;58.50
32865;DHT22;19219;44.500;11.188;2023-04-16T12:22:45;19.90;59.30
32865;DHT22;19219;44.500;11.188;2023-04-16T12:25:16;20.00;59.80
32865;DHT22;19219;44.500;11.188;2023-04-16T12:27:49;19.70;59.40
32865;DHT22;19219;44.500;11.188;2023-04-16T12:30:17;19.40;59.00
32865;DHT22;19219;44.500;11.188;2023-04-16T12:32:45;19.40;57.90
32865;DHT22;19219;44.500;11.188;2023-04-16T12:35:11;19.50;56.60
32865;DHT22;19219;44.500;11.188;2023-04-16T12:37:38;19.60;54.90
32865;DHT22;19219;44.500;11.188;2023-04-16T12:40:04;19.50;54.10
32865;DHT22;19219;44.500;11.188;2023-04-16T12:42:31;19.60;53.10
32865;DHT22;19219;44.500;11.188;2023-04-16T12:45:04;19.40;52.40
32865;DHT22;19219;44.500;11.188;2023-04-16T12:47:31;19.50;54.80
32865;DHT22;19219;44.500;11.188;2023-04-16T12:49:57;19.60;56.50
32865;DHT22;19219;44.500;11.188;2023-04-16T12:52:26;19.70;55.70
32865;DHT22;19219;44.500;11.188;2023-04-16T12:54:52;20.00;56.40
32865;DHT22;19219;44.500;11.188;2023-04-16T12:57:18;20.10;56.70
32865;DHT22;19219;44.500;11.188;2023-04-16T12:59:44;20.00;56.70
32865;DHT22;19219;44.500;11.188;2023-04-16T13:02:11;19.80;57.80
32865;DHT22;19219;44.500;11.188;2023-04-16T13:04:37;19.70;57.40
32865;DHT22;19219;44.500;11.188;2023-04-16T13:07:02;19.90;58.20
32865;DHT22;19219;44.500;11.188;2023-04-16T13:09:28;20.20;58.70
32865;DHT22;19219;44.500;11.188;2023-04-16T13:11:54;20.20;55.00
32865;DHT22;19219;44.500;11.188;2023-04-16T13:14:19;20.10;55.60
32865;DHT22;19219;44.500;11.188;2023-04-16T13:16:46;20.30;56.60
32865;DHT22;19219;44.500;11.188;2023-04-16T13:19:11;20.40;57.00
32865;DHT22;19219;44.500;11.188;2023-04-16T13:21:37;20.50;56.00
32865;DHT22;19219;44.500;11.188;2023-04-16T13:24:03;20.20;56.00
32865;DHT22;19219;44.500;11.188;2023-04-16T13:26:28;20.00;58.00
32865;DHT22;19219;44.500;11.188;2023-04-16T13:28:54;19.80;57.30
32865;DHT22;19219;44.500;11.188;2023-04-16T13:31:20;19.80;57.30
32865;DHT22;19219;44.500;11.188;2023-04-16T13:33:47;19.80;56.50
32865;DHT22;19219;44.500;11.188;2023-04-16T13:36:13;19.90;56.30
32865;DHT22;19219;44.500;11.188;2023-04-16T13:38:38;19.90;55.10
32865;DHT22;19219;44.500;11.188;2023-04-16T13:41:04;19.90;54.90
32865;DHT22;19219;44.500;11.188;2023-04-16T13:43:31;20.00;55.70
32865;DHT22;19219;44.500;11.188;2023-04-16T13:45:57;20.20;56.00
32865;DHT22;19219;44.500;11.188;2023-04-16T13:48:23;20.10;56.00
32865;DHT22;19219;44.500;11.188;2023-04-16T13:50:48;20.10;55.80
32865;DHT22;19219;44.500;11.188;2023-04-16T13:53:14;19.90;53.00
32865;DHT22;19219;44.500;11.188;2023-04-16T13:55:40;19.80;52.80
32865;DHT22;19219;44.500;11.188;2023-04-16T13:58:06;19.80;52.00
32865;DHT22;19219;44.500;11.188;2023-04-16T14:00:32;19.80;52.40
32865;DHT22;19219;44.500;11.188;2023-04-16T14:02:57;20.00;52.90
32865;DHT22;19219;44.500;11.188;2023-04-16T14:05:23;20.30;52.80
32865;DHT22;19219;44.500;11.188;2023-04-16T14:07:49;20.40;52.80
32865;DHT22;19219;44.500;11.188;2023-04-16T14:10:15;20.30;51.70
32865;DHT22;19219;44.500;11.188;2023-04-16T14:12:42;20.30;51.60
32865;DHT22;19219;44.500;11.188;2023-04-16T14:15:08;20.20;52.80
32865;DHT22;19219;44.500;11.188;2023-04-16T14:17:35;20.20;53.40
32865;DHT22;19219;44.500;11.188;2023-04-16T14:20:02;20.20;51.90
32865;DHT22;19219;44.500;11.188;2023-04-16T14:22:29;20.10;51.80
32865;DHT22;19219;44.500;11.188;2023-04-16T14:24:55;20.00;52.10
32865;DHT22;19219;44.500;11.188;2023-04-16T14:27:20;19.90;53.00
32865;DHT22;19219;44.500;11.188;2023-04-16T14:29:46;19.80;52.10
32865;DHT22;19219;44.500;11.188;2023-04-16T14:32:12;19.90;52.60
32865;DHT22;19219;44.500;11.188;2023-04-16T14:34:38;19.90;53.70
32865;DHT22;19219;44.500;11.188;2023-04-16T14:37:04;19.80;53.70
32865;DHT22;19219;44.500;11.188;2023-04-16T14:39:30;19.80;54.00
32865;DHT22;19219;44.500;11.188;2023-04-16T14:41:55;19.70;53.50
32865;DHT22;19219;44.500;11.188;2023-04-16T14:44:21;19.70;53.60
32865;DHT22;19219;44.500;11.188;2023-04-16T14:46:47;19.70;53.70
32865;DHT22;19219;44.500;11.188;2023-04-16T14:49:13;19.80;53.20
32865;DHT22;19219;44.500;11.188;2023-04-16T14:51:39;19.90;53.20
32865;DHT22;19219;44.500;11.188;2023-04-16T14:54:05;19.90;53.20
32865;DHT22;19219;44.500;11.188;2023-04-16T14:56:31;20.10;53.60
32865;DHT22;19219;44.500;11.188;2023-04-16T14:58:57;20.20;53.20
32865;DHT22;19219;44.500;11.188;2023-04-16T15:01:22;19.90;53.30
32865;DHT22;19219;44.500;11.188;2023-04-16T15:03:48;19.80;53.70
32865;DHT22;19219;44.500;11.188;2023-04-16T15:06:15;19.80;53.20
32865;DHT22;19219;44.500;11.188;2023-04-16T15:08:41;19.90;53.50
32865;DHT22;19219;44.500;11.188;2023-04-16T15:11:06;19.60;52.60
32865;DHT22;19219;44.500;11.188;2023-04-16T15:13:33;19.50;54.80
32865;DHT22;19219;44.500;11.188;2023-04-16T15:16:02;19.60;53.90
32865;DHT22;19219;44.500;11.188;2023-04-16T15:18:31;19.80;54.30
32865;DHT22;19219;44.500;11.188;2023-04-16T15:20:57;19.80;53.20